sensor_id;sensor_type;location;lat;lon;timestamp;temperature;humidity
27781;DHT22;15167;1.318;103.762;2023-09-07T00:01:33;25.60;99.90
27781;DHT22;15167;1.318;103.762;2023-09-07T00:04:00;25.70;99.90
27781;DHT22;15167;1.318;103.762;2023-09-07T00:06:26;25.70;99.90
27781;DHT22;15167;1.318;103.762;2023-09-07T00:08:53;25.70;99.90
27781;DHT22;15167;1.318;103.762;2023-09-07T00:11:20;25.80;99.90
27781;DHT22;15167;1.318;103.762;2023-09-07T00:13:46;25.80;99.90
27781;DHT22;15167;1.318;103.762;2023-09-07T00:16:13;25.90;99.90
27781;DHT22;15167;1.318;103.762;2023-09-07T00:18:40;25.80;99.90
27781;DHT22;15167;1.318;103.762;2023-09-07T00:21:07;26.00;99.90
27781;DHT22;15167;1.318;103.762;2023-09-07T00:23:33;26.10;99.90
27781;DHT22;15167;1.318;103.762;2023-09-07T00:26:00;26.20;99.90
27781;DHT22;15167;1.318;103.762;2023-09-07T00:28:26;26.10;99.90
27781;DHT22;15167;1.318;103.762;2023-09-07T00:30:53;26.20;99.90
27781;DHT22;15167;1.318;103.762;2023-09-07T00:33:20;26.20;99.90
27781;DHT22;15167;1.318;103.762;2023-09-07T00:35:49;26.30;99.90
27781;DHT22;15167;1.318;103.762;2023-09-07T00:38:15;26.30;99.90
27781;DHT22;15167;1.318;103.762;2023-09-07T00:40:45;26.40;99.90
27781;DHT22;15167;1.318;103.762;2023-09-07T00:43:12;26.50;99.90
27781;DHT22;15167;1.318;103.762;2023-09-07T00:45:39;26.60;99.90
27781;DHT22;15167;1.318;103.762;2023-09-07T00:48:06;26.70;99.90
27781;DHT22;15167;1.318;103.762;2023-09-07T00:50:33;26.70;99.90
27781;DHT22;15167;1.318;103.762;2023-09-07T00:53:00;26.80;99.90
27781;DHT22;15167;1.318;103.762;2023-09-07T00:55:29;26.90;99.90
27781;DHT22;15167;1.318;103.762;2023-09-07T00:57:58;27.00;99.90
27781;DHT22;15167;1.318;103.762;2023-09-07T01:00:25;27.10;99.90
27781;DHT22;15167;1.318;103.762;2023-09-07T01:02:52;27.10;99.90
27781;DHT22;15167;1.318;103.762;2023-09-07T01:05:21;27.10;99.90
27781;DHT22;15167;1.318;103.762;2023-09-07T01:07:53;27.10;99.90
27781;DHT22;15167;1.318;103.762;2023-09-07T01:10:20;27.10;99.90
27781;DHT22;15167;1.318;103.762;2023-09-07T01:12:48;27.20;99.90
27781;DHT22;15167;1.318;103.762;2023-09-07T01:15:15;27.20;99.90
27781;DHT22;15167;1.318;103.762;2023-09-07T01:17:42;27.20;99.90
27781;DHT22;15167;1.318;103.762;2023-09-07T01:20:10;27.30;99.90
27781;DHT22;15167;1.318;103.762;2023-09-07T01:22:39;27.30;99.90
27781;DHT22;15167;1.318;103.762;2023-09-07T01:25:07;27.30;99.90
27781;DHT22;15167;1.318;103.762;2023-09-07T01:27:34;27.30;99.90
27781;DHT22;15167;1.318;103.762;2023-09-07T01:30:02;27.40;97.30
27781;DHT22;15167;1.318;103.762;2023-09-07T01:32:29;27.40;79.60
27781;DHT22;15167;1.318;103.762;2023-09-07T01:34:57;27.40;64.60
27781;DHT22;15167;1.318;103.762;2023-09-07T01:37:24;27.40;30.80
27781;DHT22;15167;1.318;103.762;2023-09-07T01:39:51;27.50;1.00
27781;DHT22;15167;1.318;103.762;2023-09-07T01:42:17;27.60;1.00
27781;DHT22;15167;1.318;103.762;2023-09-07T01:44:44;27.60;1.00
27781;DHT22;15167;1.318;103.762;2023-09-07T01:47:11;27.70;1.00
27781;DHT22;15167;1.318;103.762;2023-09-07T01:49:37;27.70;1.00
27781;DHT22;15167;1.318;103.762;2023-09-07T01:52:04;27.70;1.00
27781;DHT22;15167;1.318;103.762;2023-09-07T01:54:31;27.80;1.00
27781;DHT22;15167;1.318;103.762;2023-09-07T01:56:58;27.80;1.00
27781;DHT22;15167;1.318;103.762;2023-09-07T01:59:25;27.80;1.00
27781;DHT22;15167;1.318;103.762;2023-09-07T02:01:51;27.80;1.00
27781;DHT22;15167;1.318;103.762;2023-09-07T02:04:18;27.80;1.00
27781;DHT22;15167;1.318;103.762;2023-09-07T02:06:44;27.80;1.00
27781;DHT22;15167;1.318;103.762;2023-09-07T02:09:11;27.80;1.00
27781;DHT22;15167;1.318;103.762;2023-09-07T02:11:38;27.90;1.00
27781;DHT22;15167;1.318;103.762;2023-09-07T02:14:05;27.90;1.00
27781;DHT22;15167;1.318;103.762;2023-09-07T02:16:32;28.00;99.90
27781;DHT22;15167;1.318;103.762;2023-09-07T02:19:03;28.10;99.90
27781;DHT22;15167;1.318;103.762;2023-09-07T02:21:30;28.20;99.90
27781;DHT22;15167;1.318;103.762;2023-09-07T02:23:57;28.30;99.90
27781;DHT22;15167;1.318;103.762;2023-09-07T02:26:23;28.40;92.40
27781;DHT22;15167;1.318;103.762;2023-09-07T02:28:50;28.60;1.00
27781;DHT22;15167;1.318;103.762;2023-09-07T02:31:16;28.80;99.90
27781;DHT22;15167;1.318;103.762;2023-09-07T02:33:43;29.00;1.00
27781;DHT22;15167;1.318;103.762;2023-09-07T02:36:11;29.20;99.90
27781;DHT22;15167;1.318;103.762;2023-09-07T02:38:38;29.40;1.00
27781;DHT22;15167;1.318;103.762;2023-09-07T02:41:04;29.50;99.90
27781;DHT22;15167;1.318;103.762;2023-09-07T02:43:31;29.60;99.90
27781;DHT22;15167;1.318;103.762;2023-09-07T02:45:58;29.60;3.90
27781;DHT22;15167;1.318;103.762;2023-09-07T02:48:26;29.60;1.00
27781;DHT22;15167;1.318;103.762;2023-09-07T02:50:53;29.50;1.00
27781;DHT22;15167;1.318;103.762;2023-09-07T02:53:19;29.50;1.00
27781;DHT22;15167;1.318;103.762;2023-09-07T02:55:46;29.50;99.90
27781;DHT22;15167;1.318;103.762;2023-09-07T02:58:13;29.60;99.90
27781;DHT22;15167;1.318;103.762;2023-09-07T03:00:43;29.60;99.90
27781;DHT22;15167;1.318;103.762;2023-09-07T03:03:14;29.70;99.90
27781;DHT22;15167;1.318;103.762;2023-09-07T03:05:43;29.70;99.90
27781;DHT22;15167;1.318;103.762;2023-09-07T03:08:09;29.70;92.80
27781;DHT22;15167;1.318;103.762;2023-09-07T03:10:36;29.80;6.50
27781;DHT22;15167;1.318;103.762;2023-09-07T03:13:07;29.80;1.00
27781;DHT22;15167;1.318;103.762;2023-09-07T03:15:34;30.00;1.00
27781;DHT22;15167;1.318;103.762;2023-09-07T03:18:01;30.00;99.90
27781;DHT22;15167;1.318;103.762;2023-09-07T03:20:28;30.00;99.90
27781;DHT22;15167;1.318;103.762;2023-09-07T03:22:54;30.10;99.90
27781;DHT22;15167;1.318;103.762;2023-09-07T03:25:22;30.20;99.90
27781;DHT22;15167;1.318;103.762;2023-09-07T03:27:48;30.30;99.90
27781;DHT22;15167;1.318;103.762;2023-09-07T03:30:16;30.40;99.90
27781;DHT22;15167;1.318;103.762;2023-09-07T03:32:42;30.50;1.00
27781;DHT22;15167;1.318;103.762;2023-09-07T03:35:09;30.50;1.00
27781;DHT22;15167;1.318;103.762;2023-09-07T03:37:36;30.50;99.90
27781;DHT22;15167;1.318;103.762;2023-09-07T03:40:04;30.50;99.90
27781;DHT22;15167;1.318;103.762;2023-09-07T03:42:31;30.50;1.00
27781;DHT22;15167;1.318;103.762;2023-09-07T03:44:57;30.60;99.90
27781;DHT22;15167;1.318;103.762;2023-09-07T03:47:24;30.70;1.00
27781;DHT22;15167;1.318;103.762;2023-09-07T03:49:55;30.70;99.90
27781;DHT22;15167;1.318;103.762;2023-09-07T03:52:23;30.90;1.00
27781;DHT22;15167;1.318;103.762;2023-09-07T03:54:54;31.00;99.90
27781;DHT22;15167;1.318;103.762;2023-09-07T03:57:21;31.10;1.00
27781;DHT22;15167;1.318;103.762;2023-09-07T03:59:48;31.30;99.90
27781;DHT22;15167;1.318;103.762;2023-09-07T04:02:15;31.40;99.90
27781;DHT22;15167;1.318;103.762;2023-09-07T04:04:47;31.60;1.00
27781;DHT22;15167;1.318;103.762;2023-09-07T04:07:14;31.70;33.30
27781;DHT22;15167;1.318;103.762;2023-09-07T04:09:41;31.80;99.90
27781;DHT22;15167;1.318;103.762;2023-09-07T04:12:07;31.80;99.90
27781;DHT22;15167;1.318;103.762;2023-09-07T04:14:34;31.80;1.00
27781;DHT22;15167;1.318;103.762;2023-09-07T04:17:01;32.00;1.00
27781;DHT22;15167;1.318;103.762;2023-09-07T04:19:28;32.00;1.00
27781;DHT22;15167;1.318;103.762;2023-09-07T04:21:54;32.00;61.00
27781;DHT22;15167;1.318;103.762;2023-09-07T04:24:21;32.00;94.00
27781;DHT22;15167;1.318;103.762;2023-09-07T04:26:48;32.10;72.20
27781;DHT22;15167;1.318;103.762;2023-09-07T04:29:15;32.10;21.40
27781;DHT22;15167;1.318;103.762;2023-09-07T04:31:42;32.10;1.00
27781;DHT22;15167;1.318;103.762;2023-09-07T04:34:09;32.00;1.00
27781;DHT22;15167;1.318;103.762;2023-09-07T04:36:35;32.00;1.00
27781;DHT22;15167;1.318;103.762;2023-09-07T04:39:02;32.00;1.00
27781;DHT22;15167;1.318;103.762;2023-09-07T04:41:29;32.00;1.00
27781;DHT22;15167;1.318;103.762;2023-09-07T04:43:56;32.00;1.00
27781;DHT22;15167;1.318;103.762;2023-09-07T04:46:23;32.10;99.90
27781;DHT22;15167;1.318;103.762;2023-09-07T04:48:49;32.10;97.10
27781;DHT22;15167;1.318;103.762;2023-09-07T04:51:16;32.20;99.90
27781;DHT22;15167;1.318;103.762;2023-09-07T04:53:43;32.30;53.60
27781;DHT22;15167;1.318;103.762;2023-09-07T04:56:10;32.50;1.00
27781;DHT22;15167;1.318;103.762;2023-09-07T04:58:37;32.50;99.90
27781;DHT22;15167;1.318;103.762;2023-09-07T05:01:04;32.40;1.00
27781;DHT22;15167;1.318;103.762;2023-09-07T05:03:31;32.50;1.00
27781;DHT22;15167;1.318;103.762;2023-09-07T05:06:00;32.60;99.90
27781;DHT22;15167;1.318;103.762;2023-09-07T05:08:26;32.60;99.90
27781;DHT22;15167;1.318;103.762;2023-09-07T05:10:57;32.60;99.90
27781;DHT22;15167;1.318;103.762;2023-09-07T05:13:25;32.50;99.90
27781;DHT22;15167;1.318;103.762;2023-09-07T05:15:53;32.40;99.90
27781;DHT22;15167;1.318;103.762;2023-09-07T05:18:20;32.50;99.90
27781;DHT22;15167;1.318;103.762;2023-09-07T05:20:48;32.40;99.90
27781;DHT22;15167;1.318;103.762;2023-09-07T05:23:17;32.40;99.90
27781;DHT22;15167;1.318;103.762;2023-09-07T05:25:45;32.50;99.90
27781;DHT22;15167;1.318;103.762;2023-09-07T05:28:15;32.60;99.90
27781;DHT22;15167;1.318;103.762;2023-09-07T05:30:43;32.70;99.90
27781;DHT22;15167;1.318;103.762;2023-09-07T05:33:10;32.80;99.90
27781;DHT22;15167;1.318;103.762;2023-09-07T05:35:39;32.80;99.90
27781;DHT22;15167;1.318;103.762;2023-09-07T05:38:08;33.00;99.90
27781;DHT22;15167;1.318;103.762;2023-09-07T05:40:40;33.00;99.90
27781;DHT22;15167;1.318;103.762;2023-09-07T05:43:07;33.00;99.90
27781;DHT22;15167;1.318;103.762;2023-09-07T05:45:35;33.00;99.90
27781;DHT22;15167;1.318;103.762;2023-09-07T05:48:05;33.00;99.90
27781;DHT22;15167;1.318;103.762;2023-09-07T05:50:34;33.00;99.90
27781;DHT22;15167;1.318;103.762;2023-09-07T05:53:01;33.00;99.90
27781;DHT22;15167;1.318;103.762;2023-09-07T05:55:28;32.80;99.90
27781;DHT22;15167;1.318;103.762;2023-09-07T05:57:55;32.60;99.90
27781;DHT22;15167;1.318;103.762;2023-09-07T06:00:22;32.50;1.00
27781;DHT22;15167;1.318;103.762;2023-09-07T06:02:49;32.40;1.00
27781;DHT22;15167;1.318;103.762;2023-09-07T06:05:16;32.50;1.00
27781;DHT22;15167;1.318;103.762;2023-09-07T06:07:44;32.50;1.00
27781;DHT22;15167;1.318;103.762;2023-09-07T06:10:10;32.60;1.00
27781;DHT22;15167;1.318;103.762;2023-09-07T06:12:37;32.80;1.00
27781;DHT22;15167;1.318;103.762;2023-09-07T06:15:04;33.00;99.90
27781;DHT22;15167;1.318;103.762;2023-09-07T06:17:30;33.00;99.90
27781;DHT22;15167;1.318;103.762;2023-09-07T06:19:57;33.10;99.90
27781;DHT22;15167;1.318;103.762;2023-09-07T06:22:23;33.20;99.90
27781;DHT22;15167;1.318;103.762;2023-09-07T06:24:50;33.20;99.90
27781;DHT22;15167;1.318;103.762;2023-09-07T06:27:17;33.10;99.90
27781;DHT22;15167;1.318;103.762;2023-09-07T06:29:43;33.20;99.90
27781;DHT22;15167;1.318;103.762;2023-09-07T06:32:10;33.30;99.90
27781;DHT22;15167;1.318;103.762;2023-09-07T06:34:36;33.40;99.90
27781;DHT22;15167;1.318;103.762;2023-09-07T06:37:03;33.50;1.00
27781;DHT22;15167;1.318;103.762;2023-09-07T06:39:29;33.60;39.90
27781;DHT22;15167;1.318;103.762;2023-09-07T06:41:56;33.80;99.90
27781;DHT22;15167;1.318;103.762;2023-09-07T06:44:23;33.80;99.90
27781;DHT22;15167;1.318;103.762;2023-09-07T06:46:51;33.90;99.90
27781;DHT22;15167;1.318;103.762;2023-09-07T06:49:17;33.90;99.90
27781;DHT22;15167;1.318;103.762;2023-09-07T06:51:45;33.90;99.90
27781;DHT22;15167;1.318;103.762;2023-09-07T06:54:11;33.80;1.00
27781;DHT22;15167;1.318;103.762;2023-09-07T06:56:39;33.60;99.90
27781;DHT22;15167;1.318;103.762;2023-09-07T06:59:05;33.50;99.90
27781;DHT22;15167;1.318;103.762;2023-09-07T07:01:32;33.30;1.00
27781;DHT22;15167;1.318;103.762;2023-09-07T07:03:59;33.30;1.00
27781;DHT22;15167;1.318;103.762;2023-09-07T07:06:25;33.40;38.60
27781;DHT22;15167;1.318;103.762;2023-09-07T07:08:52;33.50;90.50
27781;DHT22;15167;1.318;103.762;2023-09-07T07:11:19;33.70;99.90
27781;DHT22;15167;1.318;103.762;2023-09-07T07:13:46;33.80;97.30
27781;DHT22;15167;1.318;103.762;2023-09-07T07:16:12;33.80;35.70
27781;DHT22;15167;1.318;103.762;2023-09-07T07:18:39;33.90;27.40
27781;DHT22;15167;1.318;103.762;2023-09-07T07:21:06;33.90;1.00
27781;DHT22;15167;1.318;103.762;2023-09-07T07:23:32;33.80;1.00
27781;DHT22;15167;1.318;103.762;2023-09-07T07:25:59;33.70;99.90
27781;DHT22;15167;1.318;103.762;2023-09-07T07:28:25;33.40;1.00
27781;DHT22;15167;1.318;103.762;2023-09-07T07:30:52;33.00;99.90
27781;DHT22;15167;1.318;103.762;2023-09-07T07:33:20;32.70;1.00
27781;DHT22;15167;1.318;103.762;2023-09-07T07:35:46;32.50;84.00
27781;DHT22;15167;1.318;103.762;2023-09-07T07:38:14;32.50;99.90
27781;DHT22;15167;1.318;103.762;2023-09-07T07:40:41;32.50;99.90
27781;DHT22;15167;1.318;103.762;2023-09-07T07:43:08;32.40;99.90
27781;DHT22;15167;1.318;103.762;2023-09-07T07:45:36;32.50;99.90
27781;DHT22;15167;1.318;103.762;2023-09-07T07:48:04;32.60;15.40
27781;DHT22;15167;1.318;103.762;2023-09-07T07:50:40;32.70;99.90
27781;DHT22;15167;1.318;103.762;2023-09-07T07:53:07;32.70;99.90
27781;DHT22;15167;1.318;103.762;2023-09-07T07:55:38;32.70;1.00
27781;DHT22;15167;1.318;103.762;2023-09-07T07:58:09;32.80;99.90
27781;DHT22;15167;1.318;103.762;2023-09-07T08:00:39;33.00;99.90
27781;DHT22;15167;1.318;103.762;2023-09-07T08:03:06;33.20;1.00
27781;DHT22;15167;1.318;103.762;2023-09-07T08:05:35;33.30;99.90
27781;DHT22;15167;1.318;103.762;2023-09-07T08:08:02;33.20;97.00
27781;DHT22;15167;1.318;103.762;2023-09-07T08:10:29;33.30;1.00
27781;DHT22;15167;1.318;103.762;2023-09-07T08:12:56;33.20;40.40
27781;DHT22;15167;1.318;103.762;2023-09-07T08:15:22;33.10;99.90
27781;DHT22;15167;1.318;103.762;2023-09-07T08:17:51;33.00;99.90
27781;DHT22;15167;1.318;103.762;2023-09-07T08:20:18;32.80;99.90
27781;DHT22;15167;1.318;103.762;2023-09-07T08:22:46;32.70;99.90
27781;DHT22;15167;1.318;103.762;2023-09-07T08:25:13;32.70;1.00
27781;DHT22;15167;1.318;103.762;2023-09-07T08:27:41;32.60;1.00
27781;DHT22;15167;1.318;103.762;2023-09-07T08:30:15;32.60;1.00
27781;DHT22;15167;1.318;103.762;2023-09-07T08:32:43;32.60;1.00
27781;DHT22;15167;1.318;103.762;2023-09-07T08:35:10;32.60;1.00
27781;DHT22;15167;1.318;103.762;2023-09-07T08:37:42;32.70;1.00
27781;DHT22;15167;1.318;103.762;2023-09-07T08:40:09;32.70;1.00
27781;DHT22;15167;1.318;103.762;2023-09-07T08:42:37;32.50;1.00
27781;DHT22;15167;1.318;103.762;2023-09-07T08:45:05;32.60;1.00
27781;DHT22;15167;1.318;103.762;2023-09-07T08:47:35;32.60;1.00
27781;DHT22;15167;1.318;103.762;2023-09-07T08:50:03;32.50;1.00
27781;DHT22;15167;1.318;103.762;2023-09-07T08:52:32;32.70;1.00
27781;DHT22;15167;1.318;103.762;2023-09-07T08:55:00;32.70;99.90
27781;DHT22;15167;1.318;103.762;2023-09-07T08:57:30;32.90;99.90
27781;DHT22;15167;1.318;103.762;2023-09-07T08:59:58;32.90;73.30
27781;DHT22;15167;1.318;103.762;2023-09-07T09:02:24;33.00;99.90
27781;DHT22;15167;1.318;103.762;2023-09-07T09:04:51;33.20;99.90
27781;DHT22;15167;1.318;103.762;2023-09-07T09:07:19;33.10;99.90
27781;DHT22;15167;1.318;103.762;2023-09-07T09:09:46;33.10;99.90
27781;DHT22;15167;1.318;103.762;2023-09-07T09:12:14;33.00;99.90
27781;DHT22;15167;1.318;103.762;2023-09-07T09:14:44;32.80;99.90
27781;DHT22;15167;1.318;103.762;2023-09-07T09:17:15;32.70;99.90
27781;DHT22;15167;1.318;103.762;2023-09-07T09:19:42;32.70;99.90
27781;DHT22;15167;1.318;103.762;2023-09-07T09:22:09;32.60;83.30
27781;DHT22;15167;1.318;103.762;2023-09-07T09:24:36;32.60;99.90
27781;DHT22;15167;1.318;103.762;2023-09-07T09:27:03;32.70;25.00
27781;DHT22;15167;1.318;103.762;2023-09-07T09:29:33;32.70;99.90
27781;DHT22;15167;1.318;103.762;2023-09-07T09:32:02;32.70;99.90
27781;DHT22;15167;1.318;103.762;2023-09-07T09:34:37;32.60;99.90
27781;DHT22;15167;1.318;103.762;2023-09-07T09:37:12;32.60;99.90
27781;DHT22;15167;1.318;103.762;2023-09-07T09:39:41;32.40;99.90
27781;DHT22;15167;1.318;103.762;2023-09-07T09:42:09;32.50;7.80
27781;DHT22;15167;1.318;103.762;2023-09-07T09:44:37;32.40;88.30
27781;DHT22;15167;1.318;103.762;2023-09-07T09:47:06;32.40;99.90
27781;DHT22;15167;1.318;103.762;2023-09-07T09:49:35;32.40;99.90
27781;DHT22;15167;1.318;103.762;2023-09-07T09:52:02;32.30;1.00
27781;DHT22;15167;1.318;103.762;2023-09-07T09:54:29;32.30;1.00
27781;DHT22;15167;1.318;103.762;2023-09-07T09:56:56;32.20;99.90
27781;DHT22;15167;1.318;103.762;2023-09-07T09:59:23;32.30;99.90
27781;DHT22;15167;1.318;103.762;2023-09-07T10:01:50;32.40;99.90
27781;DHT22;15167;1.318;103.762;2023-09-07T10:04:18;32.30;1.00
27781;DHT22;15167;1.318;103.762;2023-09-07T10:06:59;32.20;1.00
27781;DHT22;15167;1.318;103.762;2023-09-07T10:09:34;32.20;40.80
27781;DHT22;15167;1.318;103.762;2023-09-07T10:12:03;32.20;46.30
27781;DHT22;15167;1.318;103.762;2023-09-07T10:14:41;32.10;17.90
27781;DHT22;15167;1.318;103.762;2023-09-07T10:17:08;32.10;39.60
27781;DHT22;15167;1.318;103.762;2023-09-07T10:19:36;32.00;99.90
27781;DHT22;15167;1.318;103.762;2023-09-07T10:22:05;32.00;99.90
27781;DHT22;15167;1.318;103.762;2023-09-07T10:24:33;32.00;99.90
27781;DHT22;15167;1.318;103.762;2023-09-07T10:27:06;32.00;99.90
27781;DHT22;15167;1.318;103.762;2023-09-07T10:29:50;32.00;99.90
27781;DHT22;15167;1.318;103.762;2023-09-07T10:32:20;31.90;99.90
27781;DHT22;15167;1.318;103.762;2023-09-07T10:34:47;31.70;99.90
27781;DHT22;15167;1.318;103.762;2023-09-07T10:37:14;31.50;1.00
27781;DHT22;15167;1.318;103.762;2023-09-07T10:39:42;31.40;1.00
27781;DHT22;15167;1.318;103.762;2023-09-07T10:42:20;31.20;45.70
27781;DHT22;15167;1.318;103.762;2023-09-07T10:44:48;31.10;99.90
27781;DHT22;15167;1.318;103.762;2023-09-07T10:47:14;31.10;99.90
27781;DHT22;15167;1.318;103.762;2023-09-07T10:49:41;31.00;99.90
27781;DHT22;15167;1.318;103.762;2023-09-07T10:52:08;30.90;99.90
27781;DHT22;15167;1.318;103.762;2023-09-07T10:54:35;30.80;1.00
27781;DHT22;15167;1.318;103.762;2023-09-07T10:57:11;30.70;99.90
27781;DHT22;15167;1.318;103.762;2023-09-07T10:59:46;30.50;99.90
27781;DHT22;15167;1.318;103.762;2023-09-07T11:02:14;30.50;99.90
27781;DHT22;15167;1.318;103.762;2023-09-07T11:04:43;30.50;1.00
27781;DHT22;15167;1.318;103.762;2023-09-07T11:07:10;30.40;1.00
27781;DHT22;15167;1.318;103.762;2023-09-07T11:09:41;30.40;1.00
27781;DHT22;15167;1.318;103.762;2023-09-07T11:12:11;30.30;1.00
27781;DHT22;15167;1.318;103.762;2023-09-07T11:14:39;30.20;1.00
27781;DHT22;15167;1.318;103.762;2023-09-07T11:17:06;30.20;1.00
27781;DHT22;15167;1.318;103.762;2023-09-07T11:19:33;30.10;1.00
27781;DHT22;15167;1.318;103.762;2023-09-07T11:22:00;30.10;1.00
27781;DHT22;15167;1.318;103.762;2023-09-07T11:24:26;30.10;1.00
27781;DHT22;15167;1.318;103.762;2023-09-07T11:26:57;30.00;1.00
27781;DHT22;15167;1.318;103.762;2023-09-07T11:29:25;30.00;1.00
27781;DHT22;15167;1.318;103.762;2023-09-07T11:31:52;29.90;1.00
27781;DHT22;15167;1.318;103.762;2023-09-07T11:34:19;29.90;1.00
27781;DHT22;15167;1.318;103.762;2023-09-07T11:36:47;29.90;3.40
27781;DHT22;15167;1.318;103.762;2023-09-07T11:39:16;29.80;48.70
27781;DHT22;15167;1.318;103.762;2023-09-07T11:41:44;29.80;61.20
27781;DHT22;15167;1.318;103.762;2023-09-07T11:44:11;29.80;93.00
27781;DHT22;15167;1.318;103.762;2023-09-07T11:46:38;29.90;99.90
27781;DHT22;15167;1.318;103.762;2023-09-07T11:49:04;29.80;99.90
27781;DHT22;15167;1.318;103.762;2023-09-07T11:51:32;29.70;99.90
27781;DHT22;15167;1.318;103.762;2023-09-07T11:53:59;29.60;99.90
27781;DHT22;15167;1.318;103.762;2023-09-07T11:56:25;29.60;17.30
27781;DHT22;15167;1.318;103.762;2023-09-07T11:58:53;29.60;1.00
27781;DHT22;15167;1.318;103.762;2023-09-07T12:01:19;29.50;1.00
27781;DHT22;15167;1.318;103.762;2023-09-07T12:03:46;29.50;99.90
27781;DHT22;15167;1.318;103.762;2023-09-07T12:06:13;29.50;99.90
27781;DHT22;15167;1.318;103.762;2023-09-07T12:08:42;29.40;68.60
27781;DHT22;15167;1.318;103.762;2023-09-07T12:11:24;29.30;1.00
27781;DHT22;15167;1.318;103.762;2023-09-07T12:13:50;29.30;1.00
27781;DHT22;15167;1.318;103.762;2023-09-07T12:16:18;29.30;99.90
27781;DHT22;15167;1.318;103.762;2023-09-07T12:18:45;29.30;99.90
27781;DHT22;15167;1.318;103.762;2023-09-07T12:21:11;29.30;99.90
27781;DHT22;15167;1.318;103.762;2023-09-07T12:23:38;29.30;99.90
27781;DHT22;15167;1.318;103.762;2023-09-07T12:26:04;29.30;1.00
27781;DHT22;15167;1.318;103.762;2023-09-07T12:28:32;29.30;1.00
27781;DHT22;15167;1.318;103.762;2023-09-07T12:30:58;29.30;1.00
27781;DHT22;15167;1.318;103.762;2023-09-07T12:33:25;29.30;1.00
27781;DHT22;15167;1.318;103.762;2023-09-07T12:35:51;29.30;15.20
27781;DHT22;15167;1.318;103.762;2023-09-07T12:38:18;29.30;1.00
27781;DHT22;15167;1.318;103.762;2023-09-07T12:40:48;29.30;1.00
27781;DHT22;15167;1.318;103.762;2023-09-07T12:43:14;29.30;5.50
27781;DHT22;15167;1.318;103.762;2023-09-07T12:45:41;29.20;27.70
27781;DHT22;15167;1.318;103.762;2023-09-07T12:48:08;29.30;48.00
27781;DHT22;15167;1.318;103.762;2023-09-07T12:50:34;29.20;92.50
27781;DHT22;15167;1.318;103.762;2023-09-07T12:53:01;29.20;99.90
27781;DHT22;15167;1.318;103.762;2023-09-07T12:55:27;29.20;99.90
27781;DHT22;15167;1.318;103.762;2023-09-07T12:57:55;29.20;99.90
27781;DHT22;15167;1.318;103.762;2023-09-07T13:00:22;29.20;80.50
27781;DHT22;15167;1.318;103.762;2023-09-07T13:02:49;29.10;27.30
27781;DHT22;15167;1.318;103.762;2023-09-07T13:05:15;29.10;3.70
27781;DHT22;15167;1.318;103.762;2023-09-07T13:07:42;29.10;1.00
27781;DHT22;15167;1.318;103.762;2023-09-07T13:10:10;29.10;1.00
27781;DHT22;15167;1.318;103.762;2023-09-07T13:12:37;29.10;1.00
27781;DHT22;15167;1.318;103.762;2023-09-07T13:15:05;29.00;1.00
27781;DHT22;15167;1.318;103.762;2023-09-07T13:17:31;29.00;1.00
27781;DHT22;15167;1.318;103.762;2023-09-07T13:19:58;29.00;99.90
27781;DHT22;15167;1.318;103.762;2023-09-07T13:22:25;29.00;99.90
27781;DHT22;15167;1.318;103.762;2023-09-07T13:24:51;29.00;99.90
27781;DHT22;15167;1.318;103.762;2023-09-07T13:27:18;29.00;99.90
27781;DHT22;15167;1.318;103.762;2023-09-07T13:29:45;29.00;99.90
27781;DHT22;15167;1.318;103.762;2023-09-07T13:32:11;29.00;67.60
27781;DHT22;15167;1.318;103.762;2023-09-07T13:34:38;29.00;80.60
27781;DHT22;15167;1.318;103.762;2023-09-07T13:37:05;29.00;64.80
27781;DHT22;15167;1.318;103.762;2023-09-07T13:39:31;29.00;48.90
27781;DHT22;15167;1.318;103.762;2023-09-07T13:41:58;29.00;13.70
27781;DHT22;15167;1.318;103.762;2023-09-07T13:44:24;29.00;1.00
27781;DHT22;15167;1.318;103.762;2023-09-07T13:46:51;29.00;1.00
27781;DHT22;15167;1.318;103.762;2023-09-07T13:49:19;29.10;1.00
27781;DHT22;15167;1.318;103.762;2023-09-07T13:51:46;29.00;1.00
27781;DHT22;15167;1.318;103.762;2023-09-07T13:54:12;29.10;1.00
27781;DHT22;15167;1.318;103.762;2023-09-07T13:56:39;29.10;1.00
27781;DHT22;15167;1.318;103.762;2023-09-07T13:59:08;29.00;1.00
27781;DHT22;15167;1.318;103.762;2023-09-07T14:01:34;29.10;1.00
27781;DHT22;15167;1.318;103.762;2023-09-07T14:04:01;29.00;1.00
27781;DHT22;15167;1.318;103.762;2023-09-07T14:06:27;29.00;1.00
27781;DHT22;15167;1.318;103.762;2023-09-07T14:08:54;29.00;1.00
27781;DHT22;15167;1.318;103.762;2023-09-07T14:11:20;29.00;1.00
27781;DHT22;15167;1.318;103.762;2023-09-07T14:13:48;29.00;1.00
27781;DHT22;15167;1.318;103.762;2023-09-07T14:16:19;28.90;1.00
27781;DHT22;15167;1.318;103.762;2023-09-07T14:18:46;28.90;1.00
27781;DHT22;15167;1.318;103.762;2023-09-07T14:21:16;28.90;1.00
27781;DHT22;15167;1.318;103.762;2023-09-07T14:23:43;28.90;1.00
27781;DHT22;15167;1.318;103.762;2023-09-07T14:26:10;28.90;1.00
27781;DHT22;15167;1.318;103.762;2023-09-07T14:28:37;28.90;99.90
27781;DHT22;15167;1.318;103.762;2023-09-07T14:31:05;28.90;99.90
27781;DHT22;15167;1.318;103.762;2023-09-07T14:33:34;28.90;99.90
27781;DHT22;15167;1.318;103.762;2023-09-07T14:36:05;28.90;99.90
27781;DHT22;15167;1.318;103.762;2023-09-07T14:38:32;28.90;99.90
27781;DHT22;15167;1.318;103.762;2023-09-07T14:41:06;28.90;99.90
27781;DHT22;15167;1.318;103.762;2023-09-07T14:43:32;28.90;99.90
27781;DHT22;15167;1.318;103.762;2023-09-07T14:45:59;28.90;99.90
27781;DHT22;15167;1.318;103.762;2023-09-07T14:48:25;28.90;99.90
27781;DHT22;15167;1.318;103.762;2023-09-07T14:50:52;28.90;99.90
27781;DHT22;15167;1.318;103.762;2023-09-07T14:53:18;28.90;99.90
27781;DHT22;15167;1.318;103.762;2023-09-07T14:55:45;28.90;99.90
27781;DHT22;15167;1.318;103.762;2023-09-07T14:58:11;28.80;99.90
27781;DHT22;15167;1.318;103.762;2023-09-07T15:00:38;28.90;99.90
27781;DHT22;15167;1.318;103.762;2023-09-07T15:03:05;28.80;99.90
27781;DHT22;15167;1.318;103.762;2023-09-07T15:05:31;28.80;99.90
27781;DHT22;15167;1.318;103.762;2023-09-07T15:07:58;28.80;99.90
27781;DHT22;15167;1.318;103.762;2023-09-07T15:10:29;28.70;99.90
27781;DHT22;15167;1.318;103.762;2023-09-07T15:12:55;28.70;29.00
27781;DHT22;15167;1.318;103.762;2023-09-07T15:15:22;28.70;49.80
27781;DHT22;15167;1.318;103.762;2023-09-07T15:17:48;28.70;17.50
27781;DHT22;15167;1.318;103.762;2023-09-07T15:20:15;28.70;1.40
27781;DHT22;15167;1.318;103.762;2023-09-07T15:22:42;28.80;2.60